HFY003 SBJV-SBCH
Flight info
| Callsign | HFY003 |
|---|---|
| Flight time | 0h 49m |
| Altitude | 34000 |
| Route | CTB DCT LOMIB DCT KOTIL DCT PADUL DCT NIRDA |
| Aircraft | A320/M-SDE3FGHIRWY/LB1 |
Departure
| Time | 2026-04-30 10:38 |
|---|---|
| Airport | Lauro Carneiro de Loyola Airport (SBJV) |
Arrival
| Time | 2026-04-30 11:28 |
|---|---|
| Airport | Serafin Enoss Bertaso Airport (SBCH) |
| Time | Latitude | Longitude | Altitude | Speed | Heading |
|---|---|---|---|---|---|
| 2026-04-30 10:17 | -26.22351 | -48.80243 | 21 ft | 0 kts | 129° |
| 2026-04-30 10:30 | -26.22348 | -48.80248 | 21 ft | 2 kts | 127° |
| 2026-04-30 10:30 | -26.22337 | -48.80266 | 25 ft | 3 kts | 114° |
| 2026-04-30 10:30 | -26.22331 | -48.80286 | 23 ft | 3 kts | 89° |
| 2026-04-30 10:31 | -26.22334 | -48.80304 | 23 ft | 2 kts | 46° |
| 2026-04-30 10:31 | -26.22338 | -48.80309 | 24 ft | 0 kts | 38° |
| 2026-04-30 10:33 | -26.22326 | -48.80298 | 22 ft | 5 kts | 38° |
| 2026-04-30 10:33 | -26.22286 | -48.80258 | 21 ft | 8 kts | 62° |
| 2026-04-30 10:33 | -26.22310 | -48.80182 | 23 ft | 11 kts | 126° |
| 2026-04-30 10:33 | -26.22329 | -48.80120 | 21 ft | 10 kts | 102° |
| 2026-04-30 10:34 | -26.22333 | -48.80036 | 24 ft | 13 kts | 61° |
| 2026-04-30 10:34 | -26.22295 | -48.79959 | 25 ft | 10 kts | 94° |
| 2026-04-30 10:34 | -26.22327 | -48.79900 | 25 ft | 8 kts | 128° |
| 2026-04-30 10:34 | -26.22362 | -48.79850 | 25 ft | 8 kts | 128° |
| 2026-04-30 10:35 | -26.22398 | -48.79799 | 23 ft | 9 kts | 128° |
| 2026-04-30 10:35 | -26.22475 | -48.79696 | 25 ft | 24 kts | 128° |
| 2026-04-30 10:35 | -26.22588 | -48.79541 | 22 ft | 27 kts | 128° |
| 2026-04-30 10:35 | -26.22703 | -48.79380 | 24 ft | 27 kts | 129° |
| 2026-04-30 10:36 | -26.22818 | -48.79222 | 25 ft | 27 kts | 129° |
| 2026-04-30 10:36 | -26.22895 | -48.79136 | 29 ft | 7 kts | 156° |
| 2026-04-30 10:36 | -26.22895 | -48.79123 | 28 ft | 1 kts | 1° |
| 2026-04-30 10:36 | -26.22893 | -48.79125 | 28 ft | 0 kts | 340° |
| 2026-04-30 10:37 | -26.22881 | -48.79136 | 26 ft | 0 kts | 309° |
| 2026-04-30 10:37 | -26.22878 | -48.79140 | 27 ft | 5 kts | 309° |
| 2026-04-30 10:37 | -26.22685 | -48.79410 | 24 ft | 91 kts | 309° |
| 2026-04-30 10:38 | -26.22117 | -48.80176 | 150 ft | 151 kts | 309° |
| 2026-04-30 10:38 | -26.21264 | -48.81018 | 480 ft | 187 kts | 330° |
| 2026-04-30 10:38 | -26.20423 | -48.81444 | 692 ft | 214 kts | 339° |
| 2026-04-30 10:38 | -26.18849 | -48.81916 | 1061 ft | 249 kts | 353° |
| 2026-04-30 10:39 | -26.17141 | -48.81950 | 2211 ft | 237 kts | 2° |
| 2026-04-30 10:39 | -26.15545 | -48.81830 | 3428 ft | 227 kts | 3° |
| 2026-04-30 10:39 | -26.13967 | -48.81708 | 4302 ft | 228 kts | 2° |
| 2026-04-30 10:39 | -26.12379 | -48.81624 | 5143 ft | 230 kts | 0° |
| 2026-04-30 10:40 | -26.10778 | -48.81579 | 5975 ft | 231 kts | 358° |
| 2026-04-30 10:40 | -26.09165 | -48.81565 | 6790 ft | 232 kts | 356° |
| 2026-04-30 10:40 | -26.07544 | -48.81572 | 7557 ft | 234 kts | 355° |
| 2026-04-30 10:40 | -26.05908 | -48.81592 | 8315 ft | 236 kts | 354° |
| 2026-04-30 10:41 | -26.04254 | -48.81620 | 9088 ft | 239 kts | 353° |
| 2026-04-30 10:41 | -26.02585 | -48.81658 | 9868 ft | 242 kts | 351° |
| 2026-04-30 10:41 | -26.00834 | -48.81780 | 10248 ft | 263 kts | 349° |
| 2026-04-30 10:41 | -25.98928 | -48.81973 | 10527 ft | 287 kts | 349° |
| 2026-04-30 10:42 | -25.96859 | -48.82198 | 10779 ft | 311 kts | 349° |
| 2026-04-30 10:42 | -25.94623 | -48.82436 | 10985 ft | 334 kts | 349° |
| 2026-04-30 10:42 | -25.92234 | -48.82680 | 11203 ft | 355 kts | 351° |
| 2026-04-30 10:42 | -25.89739 | -48.82919 | 11705 ft | 364 kts | 351° |
| 2026-04-30 10:43 | -25.87220 | -48.83149 | 12277 ft | 369 kts | 351° |
| 2026-04-30 10:43 | -25.84648 | -48.83380 | 12868 ft | 373 kts | 352° |
| 2026-04-30 10:43 | -25.82035 | -48.83620 | 13075 ft | 378 kts | 352° |
| 2026-04-30 10:43 | -25.79420 | -48.83909 | 13115 ft | 377 kts | 346° |
| 2026-04-30 10:44 | -25.76948 | -48.84771 | 13113 ft | 370 kts | 331° |
| 2026-04-30 10:44 | -25.74803 | -48.86320 | 13319 ft | 370 kts | 315° |
| 2026-04-30 10:44 | -25.73075 | -48.88422 | 13988 ft | 370 kts | 306° |
| 2026-04-30 10:44 | -25.71481 | -48.90679 | 14573 ft | 373 kts | 305° |
| 2026-04-30 10:45 | -25.69884 | -48.92951 | 15191 ft | 375 kts | 305° |
| 2026-04-30 10:45 | -25.68278 | -48.95245 | 15799 ft | 378 kts | 305° |
| 2026-04-30 10:45 | -25.66665 | -48.97555 | 16427 ft | 380 kts | 304° |
| 2026-04-30 10:45 | -25.65042 | -48.99879 | 17058 ft | 382 kts | 304° |
| 2026-04-30 10:46 | -25.63414 | -49.02209 | 17668 ft | 384 kts | 304° |
| 2026-04-30 10:46 | -25.61768 | -49.04560 | 18276 ft | 386 kts | 304° |
| 2026-04-30 10:46 | -25.60119 | -49.06910 | 18824 ft | 389 kts | 304° |
| 2026-04-30 10:46 | -25.58450 | -49.09284 | 19320 ft | 391 kts | 304° |
| 2026-04-30 10:47 | -25.56811 | -49.11709 | 19775 ft | 392 kts | 299° |
| 2026-04-30 10:47 | -25.55659 | -49.14430 | 20218 ft | 390 kts | 285° |
| 2026-04-30 10:47 | -25.55176 | -49.17376 | 20688 ft | 390 kts | 271° |
| 2026-04-30 10:47 | -25.55382 | -49.20371 | 21147 ft | 392 kts | 258° |
| 2026-04-30 10:48 | -25.56277 | -49.23230 | 21594 ft | 395 kts | 245° |
| 2026-04-30 10:48 | -25.57561 | -49.25931 | 22049 ft | 398 kts | 243° |
| 2026-04-30 10:48 | -25.58863 | -49.28648 | 22467 ft | 400 kts | 244° |
| 2026-04-30 10:48 | -25.60167 | -49.31377 | 22892 ft | 402 kts | 244° |
| 2026-04-30 10:49 | -25.61476 | -49.34122 | 23306 ft | 404 kts | 244° |
| 2026-04-30 10:49 | -25.62795 | -49.36895 | 23702 ft | 407 kts | 244° |
| 2026-04-30 10:49 | -25.64116 | -49.39675 | 24027 ft | 409 kts | 244° |
| 2026-04-30 10:49 | -25.65444 | -49.42467 | 24349 ft | 410 kts | 244° |
| 2026-04-30 10:50 | -25.66775 | -49.45264 | 24675 ft | 412 kts | 244° |
| 2026-04-30 10:50 | -25.68111 | -49.48081 | 25004 ft | 413 kts | 244° |
| 2026-04-30 10:50 | -25.69446 | -49.50904 | 25329 ft | 414 kts | 245° |
| 2026-04-30 10:50 | -25.70788 | -49.53741 | 25651 ft | 416 kts | 245° |
| 2026-04-30 10:51 | -25.72115 | -49.56549 | 25954 ft | 417 kts | 245° |
| 2026-04-30 10:51 | -25.73481 | -49.59446 | 26277 ft | 419 kts | 245° |
| 2026-04-30 10:51 | -25.74831 | -49.62313 | 26587 ft | 420 kts | 245° |
| 2026-04-30 10:51 | -25.76169 | -49.65152 | 26886 ft | 421 kts | 245° |
| 2026-04-30 10:52 | -25.77531 | -49.68041 | 27196 ft | 423 kts | 245° |
| 2026-04-30 10:52 | -25.78895 | -49.70929 | 27484 ft | 424 kts | 245° |
| 2026-04-30 10:52 | -25.80271 | -49.73835 | 27769 ft | 426 kts | 245° |
| 2026-04-30 10:52 | -25.81647 | -49.76745 | 28023 ft | 427 kts | 245° |
| 2026-04-30 10:53 | -25.83030 | -49.79674 | 28272 ft | 429 kts | 245° |
| 2026-04-30 10:53 | -25.84420 | -49.82620 | 28522 ft | 431 kts | 245° |
| 2026-04-30 10:53 | -25.85810 | -49.85573 | 28755 ft | 432 kts | 245° |
| 2026-04-30 10:53 | -25.87200 | -49.88531 | 29042 ft | 432 kts | 245° |
| 2026-04-30 10:54 | -25.88582 | -49.91482 | 29376 ft | 430 kts | 245° |
| 2026-04-30 10:54 | -25.89962 | -49.94433 | 29718 ft | 429 kts | 246° |
| 2026-04-30 10:54 | -25.91337 | -49.97373 | 30079 ft | 428 kts | 245° |
| 2026-04-30 10:54 | -25.92714 | -50.00310 | 30349 ft | 429 kts | 245° |
| 2026-04-30 10:55 | -25.94090 | -50.03243 | 30636 ft | 427 kts | 246° |
| 2026-04-30 10:55 | -25.95458 | -50.06155 | 30975 ft | 424 kts | 246° |
| 2026-04-30 10:55 | -25.96815 | -50.09051 | 31320 ft | 421 kts | 246° |
| 2026-04-30 10:55 | -25.98160 | -50.11927 | 31680 ft | 418 kts | 246° |
| 2026-04-30 10:56 | -25.99495 | -50.14784 | 32048 ft | 415 kts | 247° |
| 2026-04-30 10:56 | -26.00817 | -50.17613 | 32426 ft | 411 kts | 247° |
| 2026-04-30 10:56 | -26.02128 | -50.20426 | 32806 ft | 407 kts | 248° |
| 2026-04-30 10:56 | -26.03427 | -50.23218 | 33177 ft | 404 kts | 248° |
| 2026-04-30 10:57 | -26.04714 | -50.25982 | 33547 ft | 401 kts | 248° |
| 2026-04-30 10:57 | -26.05994 | -50.28722 | 33926 ft | 397 kts | 248° |
| 2026-04-30 10:57 | -26.07259 | -50.31436 | 34288 ft | 394 kts | 248° |
| 2026-04-30 10:57 | -26.08499 | -50.34102 | 34580 ft | 392 kts | 248° |
| 2026-04-30 10:58 | -26.09745 | -50.36787 | 34882 ft | 390 kts | 248° |
| 2026-04-30 10:58 | -26.10984 | -50.39457 | 35154 ft | 388 kts | 248° |
| 2026-04-30 10:58 | -26.12221 | -50.42122 | 35417 ft | 386 kts | 248° |
| 2026-04-30 10:58 | -26.13451 | -50.44774 | 35670 ft | 385 kts | 248° |
| 2026-04-30 10:59 | -26.14675 | -50.47420 | 35901 ft | 384 kts | 248° |
| 2026-04-30 10:59 | -26.15893 | -50.50058 | 36091 ft | 383 kts | 248° |
| 2026-04-30 10:59 | -26.18334 | -50.55341 | 36150 ft | 384 kts | 248° |
| 2026-04-30 11:00 | -26.20782 | -50.60632 | 36156 ft | 384 kts | 248° |
| 2026-04-30 11:00 | -26.23222 | -50.65922 | 36163 ft | 384 kts | 248° |
| 2026-04-30 11:01 | -26.25661 | -50.71209 | 36154 ft | 383 kts | 248° |
| 2026-04-30 11:01 | -26.26877 | -50.73848 | 35923 ft | 383 kts | 248° |
| 2026-04-30 11:01 | -26.28081 | -50.76456 | 35722 ft | 371 kts | 248° |
| 2026-04-30 11:02 | -26.29240 | -50.78959 | 35644 ft | 356 kts | 249° |
| 2026-04-30 11:02 | -26.30354 | -50.81367 | 35566 ft | 343 kts | 249° |
| 2026-04-30 11:02 | -26.31425 | -50.83687 | 35492 ft | 331 kts | 249° |
| 2026-04-30 11:02 | -26.32465 | -50.85950 | 35423 ft | 326 kts | 249° |
| 2026-04-30 11:03 | -26.34514 | -50.90433 | 35296 ft | 324 kts | 249° |
| 2026-04-30 11:04 | -26.37571 | -50.97116 | 35092 ft | 324 kts | 249° |
| 2026-04-30 11:04 | -26.39613 | -51.01578 | 34951 ft | 322 kts | 249° |
| 2026-04-30 11:05 | -26.41644 | -51.06015 | 34825 ft | 320 kts | 249° |
| 2026-04-30 11:05 | -26.43671 | -51.10442 | 34695 ft | 320 kts | 249° |
| 2026-04-30 11:06 | -26.45690 | -51.14867 | 34566 ft | 320 kts | 249° |
| 2026-04-30 11:06 | -26.47702 | -51.19288 | 34437 ft | 319 kts | 249° |
| 2026-04-30 11:07 | -26.49722 | -51.23713 | 34304 ft | 319 kts | 249° |
| 2026-04-30 11:07 | -26.51717 | -51.28096 | 34176 ft | 318 kts | 249° |
| 2026-04-30 11:08 | -26.53723 | -51.32495 | 34031 ft | 317 kts | 249° |
| 2026-04-30 11:08 | -26.55724 | -51.36906 | 33722 ft | 319 kts | 249° |
| 2026-04-30 11:08 | -26.56726 | -51.39117 | 33459 ft | 319 kts | 249° |
| 2026-04-30 11:09 | -26.57729 | -51.41328 | 33215 ft | 319 kts | 249° |
| 2026-04-30 11:09 | -26.58730 | -51.43534 | 32965 ft | 318 kts | 249° |
| 2026-04-30 11:09 | -26.59731 | -51.45748 | 32711 ft | 318 kts | 249° |
| 2026-04-30 11:09 | -26.60728 | -51.47961 | 32460 ft | 319 kts | 248° |
| 2026-04-30 11:10 | -26.61730 | -51.50180 | 32209 ft | 319 kts | 248° |
| 2026-04-30 11:10 | -26.62734 | -51.52393 | 31963 ft | 319 kts | 248° |
| 2026-04-30 11:10 | -26.63723 | -51.54578 | 31722 ft | 319 kts | 248° |
| 2026-04-30 11:10 | -26.64726 | -51.56796 | 31480 ft | 320 kts | 248° |
| 2026-04-30 11:11 | -26.65727 | -51.59017 | 31246 ft | 320 kts | 247° |
| 2026-04-30 11:11 | -26.66730 | -51.61241 | 31007 ft | 320 kts | 247° |
| 2026-04-30 11:11 | -26.67731 | -51.63460 | 30765 ft | 320 kts | 247° |
| 2026-04-30 11:11 | -26.68732 | -51.65684 | 30539 ft | 321 kts | 247° |
| 2026-04-30 11:12 | -26.69732 | -51.67913 | 30315 ft | 321 kts | 246° |
| 2026-04-30 11:12 | -26.70736 | -51.70146 | 29967 ft | 323 kts | 246° |
| 2026-04-30 11:12 | -26.71763 | -51.72432 | 29032 ft | 334 kts | 246° |
| 2026-04-30 11:12 | -26.72824 | -51.74793 | 28113 ft | 346 kts | 246° |
| 2026-04-30 11:13 | -26.73928 | -51.77243 | 27167 ft | 358 kts | 245° |
| 2026-04-30 11:13 | -26.75067 | -51.79769 | 26232 ft | 369 kts | 245° |
| 2026-04-30 11:13 | -26.76238 | -51.82368 | 25409 ft | 377 kts | 245° |
| 2026-04-30 11:13 | -26.77426 | -51.85007 | 24659 ft | 382 kts | 245° |
| 2026-04-30 11:14 | -26.78616 | -51.87646 | 23930 ft | 386 kts | 244° |
| 2026-04-30 11:14 | -26.79832 | -51.90350 | 23105 ft | 390 kts | 244° |
| 2026-04-30 11:14 | -26.81047 | -51.93066 | 22386 ft | 390 kts | 244° |
| 2026-04-30 11:14 | -26.82264 | -51.95790 | 21694 ft | 391 kts | 244° |
| 2026-04-30 11:15 | -26.83479 | -51.98504 | 21010 ft | 391 kts | 244° |
| 2026-04-30 11:15 | -26.84701 | -52.01233 | 20317 ft | 391 kts | 243° |
| 2026-04-30 11:15 | -26.85919 | -52.03954 | 19669 ft | 391 kts | 243° |
| 2026-04-30 11:15 | -26.87141 | -52.06678 | 19034 ft | 391 kts | 243° |
| 2026-04-30 11:16 | -26.88362 | -52.09399 | 18395 ft | 391 kts | 243° |
| 2026-04-30 11:16 | -26.89577 | -52.12120 | 17746 ft | 390 kts | 243° |
| 2026-04-30 11:16 | -26.90782 | -52.14831 | 17159 ft | 387 kts | 243° |
| 2026-04-30 11:16 | -26.91976 | -52.17521 | 16612 ft | 383 kts | 243° |
| 2026-04-30 11:17 | -26.93159 | -52.20185 | 16070 ft | 380 kts | 243° |
| 2026-04-30 11:17 | -26.94332 | -52.22832 | 15526 ft | 378 kts | 244° |
| 2026-04-30 11:17 | -26.95307 | -52.25549 | 14984 ft | 375 kts | 253° |
| 2026-04-30 11:17 | -26.96020 | -52.28370 | 14346 ft | 376 kts | 254° |
| 2026-04-30 11:18 | -26.96729 | -52.31194 | 13662 ft | 377 kts | 254° |
| 2026-04-30 11:18 | -26.98137 | -52.36794 | 12282 ft | 375 kts | 254° |
| 2026-04-30 11:18 | -26.98845 | -52.39602 | 11551 ft | 375 kts | 254° |
| 2026-04-30 11:19 | -26.99547 | -52.42394 | 11173 ft | 365 kts | 254° |
| 2026-04-30 11:19 | -27.00215 | -52.45063 | 11077 ft | 347 kts | 254° |
| 2026-04-30 11:19 | -27.00858 | -52.47623 | 10912 ft | 334 kts | 254° |
| 2026-04-30 11:19 | -27.01472 | -52.50080 | 10769 ft | 322 kts | 254° |
| 2026-04-30 11:20 | -27.02065 | -52.52452 | 10619 ft | 311 kts | 254° |
| 2026-04-30 11:20 | -27.02640 | -52.54747 | 10465 ft | 300 kts | 254° |
| 2026-04-30 11:20 | -27.03196 | -52.56963 | 10320 ft | 290 kts | 254° |
| 2026-04-30 11:20 | -27.03732 | -52.59110 | 10171 ft | 281 kts | 254° |
| 2026-04-30 11:21 | -27.04257 | -52.61218 | 9734 ft | 283 kts | 254° |
| 2026-04-30 11:21 | -27.04789 | -52.63354 | 9252 ft | 286 kts | 254° |
| 2026-04-30 11:21 | -27.05324 | -52.65505 | 8777 ft | 287 kts | 254° |
| 2026-04-30 11:21 | -27.05860 | -52.67665 | 8321 ft | 288 kts | 255° |
| 2026-04-30 11:22 | -27.06294 | -52.69847 | 7961 ft | 285 kts | 265° |
| 2026-04-30 11:22 | -27.06079 | -52.72017 | 7718 ft | 276 kts | 289° |
| 2026-04-30 11:22 | -27.05430 | -52.73987 | 7642 ft | 262 kts | 290° |
| 2026-04-30 11:22 | -27.04792 | -52.75906 | 7166 ft | 265 kts | 291° |
| 2026-04-30 11:23 | -27.04358 | -52.77212 | 6747 ft | 273 kts | 291° |
| 2026-04-30 11:23 | -27.03778 | -52.79255 | 6180 ft | 279 kts | 278° |
| 2026-04-30 11:23 | -27.05490 | -52.83702 | 5004 ft | 281 kts | 213° |
| 2026-04-30 11:24 | -27.06659 | -52.84341 | 4858 ft | 273 kts | 195° |
| 2026-04-30 11:24 | -27.08497 | -52.84507 | 4634 ft | 260 kts | 169° |
| 2026-04-30 11:24 | -27.10118 | -52.83826 | 4463 ft | 247 kts | 144° |
| 2026-04-30 11:25 | -27.11907 | -52.80877 | 4167 ft | 223 kts | 99° |
| 2026-04-30 11:25 | -27.11973 | -52.79196 | 4032 ft | 211 kts | 88° |
| 2026-04-30 11:25 | -27.11938 | -52.76040 | 3773 ft | 194 kts | 96° |
| 2026-04-30 11:26 | -27.12351 | -52.73089 | 3280 ft | 188 kts | 99° |
| 2026-04-30 11:26 | -27.12554 | -52.71682 | 2997 ft | 176 kts | 99° |
| 2026-04-30 11:26 | -27.12738 | -52.70395 | 2767 ft | 160 kts | 99° |
| 2026-04-30 11:27 | -27.12907 | -52.69205 | 2584 ft | 149 kts | 99° |
| 2026-04-30 11:27 | -27.13070 | -52.68070 | 2363 ft | 147 kts | 99° |
| 2026-04-30 11:27 | -27.13225 | -52.66961 | 2170 ft | 140 kts | 98° |
| 2026-04-30 11:27 | -27.13366 | -52.65989 | 2140 ft | 103 kts | 99° |
| 2026-04-30 11:28 | -27.13436 | -52.65516 | 2145 ft | 0 kts | 99° |
| 2026-04-30 11:28 | -27.13436 | -52.65514 | 2145 ft | 1 kts | 99° |
| 2026-04-30 11:28 | -27.13454 | -52.65480 | 2145 ft | 11 kts | 112° |
| 2026-04-30 11:29 | -27.13441 | -52.65471 | 2146 ft | 1 kts | 297° |
| 2026-04-30 11:29 | -27.13434 | -52.65517 | 2145 ft | 12 kts | 283° |
| 2026-04-30 11:29 | -27.13392 | -52.65838 | 2140 ft | 25 kts | 279° |
| 2026-04-30 11:30 | -27.13364 | -52.66048 | 2139 ft | 5 kts | 278° |
| 2026-04-30 11:30 | -27.13359 | -52.66090 | 2135 ft | 6 kts | 278° |
| 2026-04-30 11:30 | -27.13333 | -52.66106 | 2136 ft | 4 kts | 352° |
| 2026-04-30 11:31 | -27.13303 | -52.66104 | 2137 ft | 4 kts | 5° |
| 2026-04-30 11:31 | -27.13274 | -52.66120 | 2135 ft | 6 kts | 296° |
| 2026-04-30 11:31 | -27.13265 | -52.66168 | 2134 ft | 6 kts | 280° |
| 2026-04-30 11:31 | -27.13241 | -52.66179 | 2134 ft | 3 kts | 27° |
| 2026-04-30 11:32 | -27.13229 | -52.66168 | 2134 ft | 0 kts | 48° |
| 2026-04-30 11:32 | -27.13228 | -52.66166 | 2134 ft | 0 kts | 48° |
| 2026-04-30 11:32 | -27.13223 | -52.66160 | 2132 ft | 0 kts | 49° |
| 2026-04-30 11:59 | -27.13223 | -52.66161 | 2134 ft | 0 kts | 49° |
| 2026-04-30 12:33 | -27.13224 | -52.66161 | 2134 ft | 0 kts | 49° |